Oakley, CA (94561)

4:23 PM PDT on August 28, 2014 (GMT -0700)
Oakley PC | Change Station
CLOSE
Current Station
Personal Weather Station
Location: Oakley, CA
Elevation: 0 ft
Nearby Weather Stations

Elev 0 ft 37.98 °N, 121.71 °W | Updated 8 minutes ago

Clear
Clear
94.1 °F
Feels Like 91 °F
N
8.9
Wind Variable Wind from SSE
Gusts 14.5 mph

Today
High -- | Low -- °F
--% Chance of Precip.
Yesterday
High -- | Low -- °F
Precip. -- in
6:33 AM 7:41 PM
Waxing Crescent, 10% visible
Pressure 29.88 in
Visibility 10.0 miles
Clouds Clear
Heat Index 91 °F
Dew Point 48 °F
Humidity 21%
Rainfall 0.00 in
Snow Depth Not available.
UV 1.0 out of 12
Pollen 8.50 out of 12
Ozone Good
PM2.5 Good
Flu Activity Not available.
METAR KCCR 282253Z 30009KT 10SM CLR 33/11 A2992 RMK AO2 SLP119 T03330106

More Conditions Fewer Conditions

Pressure 29.88 in
Visibility 10.0 miles
Clouds Clear
Heat Index 91 °F
Dew Point 48 °F
Humidity 21%
Rainfall 0.00 in
Snow Depth Not available.
UV 1.0 out of 12
Pollen 8.50 out of 12
Ozone Good
PM2.5 Good
Flu Activity Not available.
METAR KCCR 282253Z 30009KT 10SM CLR 33/11 A2992 RMK AO2 SLP119 T03330106

More Conditions Fewer Conditions

10-Day Weather Forecast

Almanac

Astronomy

Aug. 28, 2014 Rise Set
Actual Time 6:33 AM PDT 7:41 PM PDT
Civil Twilight 6:06 AM PDT 8:09 PM PDT
Nautical Twilight 5:33 AM PDT 8:41 PM PDT
Astronomical Twilight 4:59 AM PDT 9:14 PM PDT
Moon 9:27 AM PDT 9:12 PM PDT
Length of Visible Light 14h 02m
Length of Day
13h 08m
Tomorrow will be 2m 20s shorter.
Waxing Crescent, 10% of the Moon is Illuminated
Today
Waxing Crescent
Sep 2
First Quarter
Sep 8
Full
Sep 15
Last Quarter
Sep 24
New

Today's Extremes

State Highs State Lows

Community

WunderPhotos

Upload Photos

1,748,104 photos uploaded!

Nearby

Air Quality

  Air Quality AQ Index Pollutant
Yesterday Good
OZONE
Yesterday Good
PM2.5
Current Good
PM2.5
Current Good
OZONE
Thursday Good
OZONE
Friday Good
OZONE
Saturday Good
OZONE
Sunday Good
OZONE
Monday Good
OZONE
Tuesday Good
OZONE

Snow Depth

Station Depth Elevation
CSS Lab 3 in 6900 ft
Leavitt Meadows 1 in 7200 ft
Adin Mountain 0 in 6200 ft
Cedar Pass 0 in 7100 ft

Earthquake Activity

City Distance Mag. Time & Date
Napa, California 39 miles 2.6 11:57 AM PDT
2014-08-27
The Geysers, California 83 miles 2.6 7:42 AM PDT
2014-08-27
Soledad, California 105 miles 2.6 12:15 PM PDT
2014-08-26
Napa, California 39 miles 2.5 10:56 AM PDT
2014-08-26
Minimum magnitude displayed is 2.5.

Coastal Water Temperatures

Place Temperature
San Francisco, CA 66.0 °F
Richmond, CA 66.9 °F
Port Chicago, CA 70.0 °F

Nearby Weather Stations